createdAt,value
2022-11-06T00:02:38.759Z,4.50
2022-11-06T00:08:24.221Z,6.85
2022-11-06T00:13:52.441Z,5.51
2022-11-06T00:19:36.713Z,5.65
2022-11-06T00:26:02.743Z,9.33
2022-11-06T00:31:19.617Z,9.09
2022-11-06T00:36:53.483Z,6.05
2022-11-06T00:42:42.252Z,5.01
2022-11-06T00:48:11.957Z,7.21
2022-11-06T00:53:42.973Z,7.53
2022-11-06T00:59:20.467Z,8.13
2022-11-06T01:05:06.461Z,6.39
2022-11-06T01:10:49.447Z,6.98
2022-11-06T01:16:35.577Z,7.28
2022-11-06T01:28:54.109Z,8.12
2022-11-06T01:41:36.541Z,4.94
2022-11-06T01:47:38.034Z,6.90
2022-11-06T02:00:33.763Z,5.52
2022-11-06T02:06:35.593Z,7.57
2022-11-06T02:12:33.598Z,6.56
2022-11-06T02:18:37.411Z,6.34
2022-11-06T02:24:48.589Z,6.32
2022-11-06T02:31:34.172Z,5.41
2022-11-06T02:37:12.722Z,6.26
2022-11-06T02:42:52.366Z,8.15
2022-11-06T02:48:26.490Z,6.91
2022-11-06T02:54:00.691Z,6.71
2022-11-06T02:59:44.373Z,6.89
2022-11-06T03:05:13.502Z,6.06
2022-11-06T03:12:51.015Z,8.16
2022-11-06T03:18:08.440Z,6.40
2022-11-06T03:23:29.797Z,5.84
2022-11-06T03:28:52.640Z,6.13
2022-11-06T03:34:19.636Z,5.37
2022-11-06T03:39:42.278Z,4.74
2022-11-06T03:45:09.580Z,6.73
2022-11-06T03:50:29.823Z,6.80
2022-11-06T03:55:56.134Z,5.21
2022-11-06T04:01:22.217Z,4.18
2022-11-06T04:06:46.828Z,6.64
2022-11-06T04:12:08.437Z,6.36
2022-11-06T04:17:34.404Z,8.55
2022-11-06T04:22:58.384Z,5.53
2022-11-06T04:28:26.422Z,5.66
2022-11-06T04:33:52.682Z,4.44
2022-11-06T04:50:06.994Z,6.07
2022-11-06T04:55:31.869Z,6.06
2022-11-06T05:01:04.641Z,4.49
2022-11-06T05:06:34.260Z,5.67
2022-11-06T05:11:58.287Z,5.17
2022-11-06T05:17:36.173Z,4.83
2022-11-06T05:22:51.217Z,5.41
2022-11-06T05:28:19.207Z,6.55
2022-11-06T05:33:45.543Z,4.86
2022-11-06T05:39:11.990Z,6.62
2022-11-06T05:44:36.301Z,5.05
2022-11-06T05:50:02.416Z,6.02
2022-11-06T05:55:30.269Z,4.44
2022-11-06T06:00:55.084Z,4.78
2022-11-06T06:06:22.571Z,5.84
2022-11-06T06:11:47.850Z,5.05
2022-11-06T06:17:14.111Z,6.56
2022-11-06T06:22:35.295Z,5.65
2022-11-06T06:28:02.973Z,5.57
2022-11-06T06:33:25.754Z,6.37
2022-11-06T06:38:49.369Z,6.50
2022-11-06T06:44:10.709Z,5.14
2022-11-06T06:49:37.123Z,6.77
2022-11-06T06:55:04.391Z,4.50
2022-11-06T07:00:33.500Z,5.14
2022-11-06T07:05:55.660Z,7.93
2022-11-06T07:11:19.827Z,6.05
2022-11-06T07:16:38.718Z,4.19
2022-11-06T07:22:02.008Z,3.79
2022-11-06T07:27:26.991Z,2.83
2022-11-06T07:32:51.168Z,3.76
2022-11-06T07:38:15.192Z,7.89
2022-11-06T07:43:36.284Z,3.75
2022-11-06T07:49:01.727Z,2.77
2022-11-06T07:54:28.887Z,2.77
2022-11-06T07:59:53.490Z,3.42
2022-11-06T08:05:20.801Z,3.19
2022-11-06T08:10:47.917Z,4.77
2022-11-06T08:16:14.978Z,3.10
2022-11-06T08:21:41.570Z,4.38
2022-11-06T08:27:02.661Z,3.48
2022-11-06T08:32:27.116Z,5.03
2022-11-06T08:37:53.912Z,4.69
2022-11-06T08:43:20.733Z,3.87
2022-11-06T08:48:48.153Z,3.81
2022-11-06T08:54:12.975Z,6.38
2022-11-06T08:59:34.742Z,3.73
2022-11-06T09:04:58.364Z,5.40
2022-11-06T09:10:25.711Z,4.79
2022-11-06T09:15:52.319Z,4.74
2022-11-06T09:21:18.396Z,4.30
2022-11-06T09:26:41.860Z,3.74
2022-11-06T09:32:06.672Z,4.32
2022-11-06T09:37:32.623Z,3.95
2022-11-06T09:42:57.239Z,4.00
2022-11-06T09:48:24.552Z,4.14
2022-11-06T09:53:51.961Z,3.69
2022-11-06T09:59:16.219Z,4.50
2022-11-06T10:04:42.775Z,3.46
2022-11-06T10:10:09.587Z,4.04
2022-11-06T10:15:33.951Z,5.16
2022-11-06T10:21:01.325Z,5.32
2022-11-06T10:26:24.147Z,3.83
2022-11-06T10:31:53.029Z,3.40
2022-11-06T10:37:22.761Z,2.30
2022-11-06T10:42:51.600Z,2.53
2022-11-06T10:48:15.563Z,1.87
2022-11-06T10:53:39.049Z,1.98
2022-11-06T10:59:03.926Z,3.15
2022-11-06T11:04:28.346Z,2.47
2022-11-06T11:09:56.288Z,2.40
2022-11-06T11:15:27.880Z,1.80
2022-11-06T11:20:50.024Z,2.27
2022-11-06T11:26:18.430Z,2.65
2022-11-06T11:31:41.995Z,1.86
2022-11-06T11:37:05.944Z,2.54
2022-11-06T11:42:29.649Z,2.08
2022-11-06T11:47:55.987Z,2.23
2022-11-06T11:53:22.956Z,2.06
2022-11-06T11:58:48.187Z,2.12
2022-11-06T12:04:10.419Z,2.74
2022-11-06T12:09:33.718Z,2.95
2022-11-06T12:15:03.244Z,2.92
2022-11-06T12:20:40.541Z,3.73
2022-11-06T12:26:03.518Z,2.27
2022-11-06T12:31:26.877Z,4.05
2022-11-06T12:36:50.734Z,2.83
2022-11-06T12:42:22.623Z,2.24
2022-11-06T12:47:46.268Z,1.97
2022-11-06T12:53:11.368Z,4.66
2022-11-06T12:58:40.487Z,2.66
2022-11-06T13:04:12.583Z,2.00
2022-11-06T13:09:41.629Z,2.06
2022-11-06T13:15:08.883Z,2.41
2022-11-06T13:20:38.002Z,1.60
2022-11-06T13:26:07.135Z,1.47
2022-11-06T13:31:34.692Z,1.67
2022-11-06T13:36:55.953Z,1.24
2022-11-06T13:42:17.451Z,0.67
2022-11-06T13:47:39.614Z,0.96
2022-11-06T13:53:03.704Z,1.02
2022-11-06T13:58:27.724Z,0.97
2022-11-06T14:03:57.597Z,1.64
2022-11-06T14:09:59.468Z,1.08
2022-11-06T14:15:30.339Z,1.08
2022-11-06T14:20:55.542Z,1.28
2022-11-06T14:26:48.387Z,2.70
2022-11-06T14:32:13.928Z,1.26
2022-11-06T14:37:59.473Z,1.45
2022-11-06T14:43:50.352Z,3.20
2022-11-06T14:49:16.979Z,1.52
2022-11-06T14:54:39.744Z,1.49
2022-11-06T15:00:06.049Z,1.92
2022-11-06T15:05:49.602Z,1.27
2022-11-06T15:11:08.939Z,3.05
2022-11-06T15:16:47.044Z,1.53
2022-11-06T15:22:12.383Z,3.76
2022-11-06T15:27:40.392Z,3.65
2022-11-06T15:32:57.844Z,3.42
2022-11-06T15:38:25.624Z,2.51
2022-11-06T15:43:53.351Z,2.51
2022-11-06T15:49:15.209Z,1.77
2022-11-06T15:54:41.184Z,1.87
2022-11-06T16:00:07.055Z,1.79
2022-11-06T16:05:39.316Z,2.50
2022-11-06T16:11:12.260Z,3.13
2022-11-06T16:16:29.094Z,2.24
2022-11-06T16:21:53.872Z,2.27
2022-11-06T16:27:17.712Z,3.05
2022-11-06T16:32:43.999Z,2.78
2022-11-06T16:38:34.043Z,2.88
2022-11-06T16:43:59.200Z,1.64
2022-11-06T16:49:39.114Z,2.29
2022-11-06T16:54:59.628Z,1.37
2022-11-06T17:00:21.261Z,1.69
2022-11-06T17:05:42.182Z,1.95
2022-11-06T17:11:07.948Z,1.71
2022-11-06T17:16:36.434Z,1.51
2022-11-06T17:22:01.875Z,1.88
2022-11-06T17:27:25.190Z,1.92
2022-11-06T17:32:46.568Z,2.24
2022-11-06T17:38:11.516Z,2.40
2022-11-06T17:43:33.576Z,2.30
2022-11-06T17:48:55.171Z,2.16
2022-11-06T17:54:49.800Z,1.52
2022-11-06T18:00:25.406Z,2.09
2022-11-06T18:06:12.465Z,2.47
2022-11-06T18:11:41.576Z,3.35
2022-11-06T18:17:04.713Z,2.40
2022-11-06T18:22:29.827Z,2.42
2022-11-06T18:27:53.315Z,3.47
2022-11-06T18:33:22.576Z,2.49
2022-11-06T18:38:43.616Z,3.36
2022-11-06T18:44:09.629Z,3.35
2022-11-06T18:49:34.291Z,2.68
2022-11-06T18:55:01.060Z,2.73
2022-11-06T19:00:28.402Z,2.55
2022-11-06T19:06:00.003Z,2.74
2022-11-06T19:11:31.003Z,2.28
2022-11-06T19:16:54.235Z,2.78
2022-11-06T19:22:18.813Z,2.66
2022-11-06T19:27:46.332Z,3.25
2022-11-06T19:33:12.738Z,4.73
2022-11-06T19:38:40.480Z,3.41
2022-11-06T19:44:02.429Z,2.46
2022-11-06T19:49:26.602Z,4.41
2022-11-06T19:54:51.107Z,3.32
2022-11-06T20:00:14.036Z,3.03
2022-11-06T20:05:41.540Z,3.32
2022-11-06T20:11:08.986Z,3.05
2022-11-06T20:16:34.570Z,3.16
2022-11-06T20:21:58.809Z,2.13
2022-11-06T20:27:22.650Z,3.25
2022-11-06T20:32:54.181Z,3.44
2022-11-06T20:38:26.709Z,4.29
2022-11-06T20:43:47.567Z,4.31
2022-11-06T20:49:24.218Z,4.10
2022-11-06T20:54:49.284Z,3.82
2022-11-06T21:00:24.275Z,3.01
2022-11-06T21:05:51.611Z,3.36
2022-11-06T21:11:15.030Z,2.83
2022-11-06T21:16:38.485Z,3.22
2022-11-06T21:22:05.596Z,3.77
2022-11-06T21:27:31.997Z,4.09
2022-11-06T21:32:58.256Z,4.02
2022-11-06T21:38:22.854Z,4.03
2022-11-06T21:43:46.841Z,4.05
2022-11-06T21:49:12.477Z,3.97
2022-11-06T21:54:39.302Z,3.66
2022-11-06T22:00:03.048Z,3.73
2022-11-06T22:05:28.922Z,3.40
2022-11-06T22:10:55.979Z,4.36
2022-11-06T22:16:27.153Z,4.19
2022-11-06T22:21:52.295Z,3.30
2022-11-06T22:27:16.142Z,4.58
2022-11-06T22:32:43.018Z,4.65
2022-11-06T22:38:09.693Z,2.58
2022-11-06T22:43:38.141Z,4.01
2022-11-06T22:49:09.710Z,4.32
2022-11-06T22:54:38.644Z,2.49
2022-11-06T23:00:06.910Z,4.98
2022-11-06T23:05:35.841Z,3.34
2022-11-06T23:11:04.029Z,2.92
2022-11-06T23:16:31.338Z,2.81
2022-11-06T23:21:57.035Z,2.77
2022-11-06T23:27:23.563Z,2.76
2022-11-06T23:32:46.938Z,2.58
2022-11-06T23:38:10.083Z,3.28
2022-11-06T23:43:36.842Z,2.80
2022-11-06T23:49:04.056Z,3.69
2022-11-06T23:54:29.773Z,2.58
2022-11-06T23:59:58.036Z,2.54
